Prairie City, Oregon
Current Conditions -  °F | °C
As of 2:55 AM on Friday 31 Oct 2014 (Local Time) from KGCD Reporting Station
Clear Clear  
Wind Chill: 60°   Ceiling: Unl
Heat Index: 60°   Visibility: 10mi
Dew Point: 33°   Wind: 10mph
Humidity: 36%   Direction: 160°SSE
Pressure: 29.78"   Gusts: NA
Location:  44.46°N, 118.71°W
Report Text: KGCD 310955Z AUTO 16009KT 10SM CLR 16/01 A2978 RMK AO2 T01580006
Loading
Personal Weather Stations






























Interactive Weather Map
Tropical Storm Tracking
New forecast layout! Learn more

10-Day Weather Forecast

Advertisements
Track Severe Weather on mobile